createdAt,value
2023-04-15T00:02:22.472Z,10.20
2023-04-15T00:04:50.061Z,10.20
2023-04-15T00:07:18.034Z,10.20
2023-04-15T00:09:46.091Z,10.20
2023-04-15T00:12:16.486Z,10.20
2023-04-15T00:14:43.563Z,10.20
2023-04-15T00:17:11.054Z,10.20
2023-04-15T00:19:38.348Z,10.20
2023-04-15T00:22:06.227Z,10.20
2023-04-15T00:24:33.367Z,10.10
2023-04-15T00:27:00.690Z,10.20
2023-04-15T00:29:28.391Z,10.20
2023-04-15T00:31:55.771Z,10.20
2023-04-15T00:34:23.342Z,10.20
2023-04-15T00:36:51.724Z,10.20
2023-04-15T00:39:18.815Z,10.20
2023-04-15T00:41:46.790Z,10.20
2023-04-15T00:44:14.355Z,10.20
2023-04-15T00:46:43.411Z,10.10
2023-04-15T00:49:11.840Z,10.10
2023-04-15T00:51:39.143Z,10.10
2023-04-15T00:54:07.988Z,10.10
2023-04-15T00:56:39.502Z,10.00
2023-04-15T00:59:07.839Z,10.00
2023-04-15T01:01:38.682Z,9.90
2023-04-15T01:04:07.084Z,9.90
2023-04-15T01:06:34.427Z,9.80
2023-04-15T01:09:01.895Z,9.80
2023-04-15T01:11:30.863Z,9.80
2023-04-15T01:13:59.189Z,9.80
2023-04-15T01:16:31.694Z,9.80
2023-04-15T01:18:59.353Z,9.80
2023-04-15T01:21:26.967Z,9.80
2023-04-15T01:23:56.909Z,9.80
2023-04-15T01:26:24.676Z,9.80
2023-04-15T01:28:51.759Z,9.80
2023-04-15T01:31:21.216Z,9.70
2023-04-15T01:33:48.451Z,9.70
2023-04-15T01:36:15.699Z,9.80
2023-04-15T01:38:42.949Z,9.80
2023-04-15T01:41:10.538Z,9.80
2023-04-15T01:43:40.363Z,9.80
2023-04-15T01:46:09.863Z,9.80
2023-04-15T01:48:37.376Z,9.70
2023-04-15T01:51:04.755Z,9.70
2023-04-15T01:53:31.813Z,9.70
2023-04-15T01:55:59.250Z,9.70
2023-04-15T01:58:27.205Z,9.70
2023-04-15T02:00:54.974Z,9.70
2023-04-15T02:03:22.435Z,9.70
2023-04-15T02:05:51.034Z,9.70
2023-04-15T02:08:18.044Z,9.70
2023-04-15T02:10:48.227Z,9.70
2023-04-15T02:13:15.338Z,9.70
2023-04-15T02:15:48.447Z,9.80
2023-04-15T02:18:18.361Z,9.80
2023-04-15T02:20:46.914Z,9.80
2023-04-15T02:23:14.436Z,9.80
2023-04-15T02:25:53.511Z,9.80
2023-04-15T02:28:21.928Z,9.80
2023-04-15T02:30:53.500Z,9.80
2023-04-15T02:33:21.837Z,9.80
2023-04-15T02:35:53.329Z,9.80
2023-04-15T02:38:20.811Z,9.90
2023-04-15T02:40:49.771Z,9.90
2023-04-15T02:43:17.642Z,9.90
2023-04-15T02:45:47.076Z,9.90
2023-04-15T02:48:14.496Z,9.90
2023-04-15T02:50:41.901Z,10.00
2023-04-15T02:53:14.765Z,10.00
2023-04-15T02:55:43.056Z,10.40
2023-04-15T02:58:10.392Z,10.00
2023-04-15T03:00:37.977Z,10.00
2023-04-15T03:03:06.583Z,10.00
2023-04-15T03:05:34.348Z,10.00
2023-04-15T03:08:04.189Z,10.00
2023-04-15T03:10:31.839Z,10.10
2023-04-15T03:12:58.936Z,10.10
2023-04-15T03:15:27.099Z,10.10
2023-04-15T03:17:55.151Z,10.10
2023-04-15T03:20:22.718Z,10.10
2023-04-15T03:22:49.845Z,10.10
2023-04-15T03:25:19.245Z,10.10
2023-04-15T03:27:46.499Z,10.10
2023-04-15T03:30:14.950Z,10.10
2023-04-15T03:32:42.040Z,10.10
2023-04-15T03:35:09.788Z,10.10
2023-04-15T03:37:36.919Z,10.10
2023-04-15T03:40:04.601Z,10.10
2023-04-15T03:42:31.726Z,10.10
2023-04-15T03:44:59.195Z,10.10
2023-04-15T03:47:26.617Z,10.10
2023-04-15T03:49:53.971Z,10.10
2023-04-15T03:52:21.465Z,10.10
2023-04-15T03:54:48.681Z,10.10
2023-04-15T03:57:16.421Z,10.10
2023-04-15T03:59:44.014Z,10.10
2023-04-15T04:02:11.281Z,10.00
2023-04-15T04:04:38.669Z,9.90
2023-04-15T04:07:05.994Z,9.90
2023-04-15T04:09:33.302Z,9.70
2023-04-15T04:12:00.305Z,9.60
2023-04-15T04:14:29.823Z,9.40
2023-04-15T04:16:57.595Z,9.40
2023-04-15T04:19:24.934Z,9.40
2023-04-15T04:21:52.654Z,9.30
2023-04-15T04:24:19.971Z,9.40
2023-04-15T04:26:47.083Z,9.40
2023-04-15T04:29:14.448Z,9.40
2023-04-15T04:31:41.616Z,9.40
2023-04-15T04:34:09.027Z,9.30
2023-04-15T04:36:36.036Z,9.20
2023-04-15T04:39:03.764Z,9.10
2023-04-15T04:41:31.042Z,9.10
2023-04-15T04:43:58.526Z,9.10
2023-04-15T04:46:25.534Z,9.00
2023-04-15T04:48:52.805Z,8.90
2023-04-15T04:51:20.210Z,8.90
2023-04-15T04:53:47.616Z,8.90
2023-04-15T04:56:14.621Z,8.80
2023-04-15T04:58:42.431Z,8.80
2023-04-15T05:01:10.120Z,8.90
2023-04-15T05:03:41.089Z,8.90
2023-04-15T05:06:08.890Z,9.00
2023-04-15T05:08:36.952Z,8.90
2023-04-15T05:11:05.260Z,8.80
2023-04-15T05:13:34.040Z,8.90
2023-04-15T05:16:01.489Z,8.90
2023-04-15T05:18:29.255Z,8.90
2023-04-15T05:20:56.357Z,8.90
2023-04-15T05:23:23.733Z,9.00
2023-04-15T05:25:51.394Z,8.90
2023-04-15T05:28:18.938Z,8.90
2023-04-15T05:30:49.099Z,8.80
2023-04-15T05:33:17.594Z,8.90
2023-04-15T05:35:44.695Z,8.90
2023-04-15T05:38:12.033Z,8.90
2023-04-15T05:40:39.045Z,8.90
2023-04-15T05:43:06.639Z,8.80
2023-04-15T05:45:33.683Z,8.80
2023-04-15T05:48:01.107Z,8.80
2023-04-15T05:50:28.469Z,8.80
2023-04-15T05:52:56.120Z,8.80
2023-04-15T05:55:23.175Z,8.90
2023-04-15T05:57:51.171Z,8.80
2023-04-15T06:00:18.381Z,8.80
2023-04-15T06:02:46.151Z,8.80
2023-04-15T06:05:13.959Z,8.70
2023-04-15T06:07:41.745Z,8.70
2023-04-15T06:10:09.353Z,8.70
2023-04-15T06:12:38.277Z,8.70
2023-04-15T06:15:06.747Z,8.70
2023-04-15T06:17:34.189Z,8.70
2023-04-15T06:20:04.777Z,8.80
2023-04-15T06:22:34.479Z,8.70
2023-04-15T06:25:01.824Z,8.70
2023-04-15T06:27:29.209Z,8.70
2023-04-15T06:29:56.160Z,8.70
2023-04-15T06:32:23.570Z,8.80
2023-04-15T06:34:53.468Z,8.70
2023-04-15T06:37:20.790Z,8.70
2023-04-15T06:39:50.363Z,8.70
2023-04-15T06:42:18.059Z,8.70
2023-04-15T06:44:45.220Z,8.60
2023-04-15T06:47:14.701Z,8.60
2023-04-15T06:49:43.195Z,8.60
2023-04-15T06:52:11.346Z,8.70
2023-04-15T06:54:38.487Z,8.60
2023-04-15T06:57:07.457Z,8.70
2023-04-15T06:59:34.479Z,8.70
2023-04-15T07:02:02.375Z,8.70
2023-04-15T07:04:29.468Z,8.60
2023-04-15T07:06:57.004Z,8.70
2023-04-15T07:09:24.784Z,8.60
2023-04-15T07:11:52.514Z,8.60
2023-04-15T07:14:19.621Z,8.60
2023-04-15T07:16:47.327Z,8.60
2023-04-15T07:19:14.808Z,8.60
2023-04-15T07:21:42.321Z,8.60
2023-04-15T07:24:10.545Z,8.70
2023-04-15T07:26:40.450Z,8.70
2023-04-15T07:29:10.079Z,8.80
2023-04-15T07:31:37.627Z,8.80
2023-04-15T07:34:05.257Z,8.90
2023-04-15T07:36:32.547Z,9.00
2023-04-15T07:39:02.165Z,9.00
2023-04-15T07:41:30.693Z,9.10
2023-04-15T07:43:57.924Z,9.20
2023-04-15T07:46:27.301Z,9.20
2023-04-15T07:48:54.481Z,9.10
2023-04-15T07:51:21.986Z,9.30
2023-04-15T07:53:50.482Z,9.30
2023-04-15T07:56:17.884Z,9.30
2023-04-15T07:58:45.003Z,9.40
2023-04-15T08:01:12.654Z,9.40
2023-04-15T08:03:40.144Z,9.50
2023-04-15T08:06:08.002Z,9.50
2023-04-15T08:08:35.090Z,9.60
2023-04-15T08:11:02.425Z,9.80
2023-04-15T08:13:29.750Z,9.90
2023-04-15T08:16:21.663Z,10.20
2023-04-15T08:18:50.066Z,10.50
2023-04-15T08:21:18.741Z,10.60
2023-04-15T08:23:47.184Z,10.80
2023-04-15T08:26:14.576Z,10.60
2023-04-15T08:28:43.064Z,10.60
2023-04-15T08:31:10.490Z,10.60
2023-04-15T08:33:37.527Z,10.60
2023-04-15T08:36:05.979Z,10.60
2023-04-15T08:38:33.503Z,10.50
2023-04-15T08:41:10.278Z,10.50
2023-04-15T08:43:45.762Z,10.50
2023-04-15T08:46:13.699Z,10.80
2023-04-15T08:48:44.836Z,10.70
2023-04-15T08:51:16.078Z,10.70
2023-04-15T08:53:44.530Z,10.60
2023-04-15T08:56:14.258Z,10.60
2023-04-15T08:58:42.246Z,10.50
2023-04-15T09:01:10.210Z,10.40
2023-04-15T09:03:37.903Z,10.20
2023-04-15T09:06:06.973Z,10.20
2023-04-15T09:08:37.182Z,10.00
2023-04-15T09:11:04.949Z,9.90
2023-04-15T09:13:32.095Z,10.30
2023-04-15T09:16:03.627Z,10.00
2023-04-15T09:18:32.701Z,10.10
2023-04-15T09:21:11.880Z,10.10
2023-04-15T09:23:41.876Z,10.20
2023-04-15T09:26:12.404Z,10.20
2023-04-15T09:28:43.496Z,10.20
2023-04-15T09:31:11.139Z,10.30
2023-04-15T09:33:56.375Z,10.40
2023-04-15T09:36:25.182Z,10.50
2023-04-15T09:38:59.683Z,10.60
2023-04-15T09:41:27.350Z,10.70
2023-04-15T09:43:54.399Z,10.70
2023-04-15T09:46:42.202Z,10.60
2023-04-15T09:49:10.939Z,10.50
2023-04-15T09:51:38.571Z,10.30
2023-04-15T09:54:07.346Z,10.20
2023-04-15T09:56:37.871Z,10.20
2023-04-15T09:59:10.763Z,10.20
2023-04-15T10:01:41.095Z,10.30
2023-04-15T10:04:12.277Z,10.40
2023-04-15T10:06:40.696Z,10.40
2023-04-15T10:09:08.819Z,10.40
2023-04-15T10:11:36.316Z,10.40
2023-04-15T10:14:04.335Z,10.50
2023-04-15T10:16:33.084Z,10.40
2023-04-15T10:19:02.357Z,10.30
2023-04-15T10:21:30.825Z,10.10
2023-04-15T10:23:58.730Z,10.10
2023-04-15T10:26:27.458Z,10.10
2023-04-15T10:28:55.250Z,10.20
2023-04-15T10:31:23.624Z,10.30
2023-04-15T10:33:52.137Z,10.30
2023-04-15T10:36:20.474Z,10.30
2023-04-15T10:38:47.585Z,10.40
2023-04-15T10:41:20.733Z,10.40
2023-04-15T10:44:01.661Z,10.50
2023-04-15T10:46:45.811Z,10.60
2023-04-15T10:49:29.969Z,10.70
2023-04-15T10:52:01.319Z,10.70
2023-04-15T10:54:28.319Z,10.80
2023-04-15T10:57:04.193Z,10.80
2023-04-15T10:59:32.127Z,10.80
2023-04-15T11:02:04.510Z,10.70
2023-04-15T11:05:00.002Z,10.70
2023-04-15T11:07:49.378Z,10.50
2023-04-15T11:10:31.359Z,10.30
2023-04-15T11:13:01.872Z,10.10
2023-04-15T11:15:39.089Z,10.00
2023-04-15T11:18:09.415Z,9.90
2023-04-15T11:20:41.622Z,10.00
2023-04-15T11:23:15.101Z,10.00
2023-04-15T11:25:43.944Z,10.10
2023-04-15T11:28:13.996Z,10.10
2023-04-15T11:30:42.231Z,10.20
2023-04-15T11:33:13.791Z,10.30
2023-04-15T11:35:44.147Z,10.30
2023-04-15T11:38:13.894Z,10.20
2023-04-15T11:40:43.847Z,10.10
2023-04-15T11:43:13.926Z,10.10
2023-04-15T11:45:51.765Z,10.00
2023-04-15T11:48:23.045Z,9.80
2023-04-15T11:51:06.669Z,9.90
2023-04-15T11:53:48.631Z,9.90
2023-04-15T11:56:23.822Z,9.80
2023-04-15T11:58:59.695Z,9.90
2023-04-15T12:01:42.397Z,9.90
2023-04-15T12:04:15.183Z,9.90
2023-04-15T12:06:42.755Z,9.80
2023-04-15T12:09:12.313Z,9.90
2023-04-15T12:11:50.353Z,9.90
2023-04-15T12:14:26.606Z,9.80
2023-04-15T12:16:58.353Z,9.80
2023-04-15T12:19:28.866Z,9.90
2023-04-15T12:22:10.044Z,9.90
2023-04-15T12:24:40.378Z,9.90
2023-04-15T12:27:12.319Z,10.00
2023-04-15T12:29:43.194Z,10.00
2023-04-15T12:32:15.629Z,10.10
2023-04-15T12:34:49.766Z,10.00
2023-04-15T12:37:17.724Z,10.10
2023-04-15T12:39:48.851Z,10.00
2023-04-15T12:42:16.922Z,9.90
2023-04-15T12:44:44.658Z,9.90
2023-04-15T12:47:13.277Z,9.80
2023-04-15T12:49:41.418Z,9.80
2023-04-15T12:52:08.693Z,10.00
2023-04-15T12:54:36.410Z,10.00
2023-04-15T12:57:06.930Z,10.10
2023-04-15T12:59:35.374Z,10.20
2023-04-15T13:02:03.259Z,10.30
2023-04-15T13:04:31.726Z,10.70
2023-04-15T13:07:01.219Z,10.50
2023-04-15T13:09:29.132Z,10.70
2023-04-15T13:11:58.384Z,10.80
2023-04-15T13:14:27.265Z,10.90
2023-04-15T13:16:54.369Z,11.00
2023-04-15T13:19:21.974Z,11.00
2023-04-15T13:21:49.687Z,10.80
2023-04-15T13:24:17.747Z,10.80
2023-04-15T13:26:48.041Z,10.70
2023-04-15T13:29:17.108Z,10.70
2023-04-15T13:31:44.182Z,10.90
2023-04-15T13:34:11.653Z,11.00
2023-04-15T13:36:38.698Z,11.10
2023-04-15T13:39:06.526Z,11.00
2023-04-15T13:41:34.037Z,11.00
2023-04-15T13:44:01.960Z,10.90
2023-04-15T13:46:29.050Z,10.70
2023-04-15T13:48:57.315Z,10.40
2023-04-15T13:51:27.042Z,10.30
2023-04-15T13:53:54.468Z,10.00
2023-04-15T13:56:21.900Z,9.90
2023-04-15T13:58:49.236Z,9.70
2023-04-15T14:01:16.713Z,9.80
2023-04-15T14:03:44.239Z,9.80
2023-04-15T14:06:11.703Z,9.70
2023-04-15T14:08:40.420Z,9.70
2023-04-15T14:11:07.623Z,9.80
2023-04-15T14:13:36.555Z,9.70
2023-04-15T14:16:03.907Z,9.60
2023-04-15T14:18:31.413Z,9.60
2023-04-15T14:20:58.533Z,9.60
2023-04-15T14:23:28.858Z,9.60
2023-04-15T14:25:55.911Z,9.60
2023-04-15T14:28:23.411Z,9.70
2023-04-15T14:30:53.542Z,9.70
2023-04-15T14:33:21.143Z,9.70
2023-04-15T14:35:49.639Z,9.70
2023-04-15T14:38:19.245Z,9.70
2023-04-15T14:40:49.302Z,9.60
2023-04-15T14:43:17.085Z,9.70
2023-04-15T14:45:48.270Z,9.80
2023-04-15T14:48:16.392Z,9.90
2023-04-15T14:50:43.411Z,10.00
2023-04-15T14:53:10.839Z,10.00
2023-04-15T14:55:38.103Z,10.00
2023-04-15T14:58:10.666Z,10.00
2023-04-15T15:00:42.245Z,10.00
2023-04-15T15:03:13.826Z,10.10
2023-04-15T15:05:46.348Z,10.10
2023-04-15T15:08:14.092Z,10.00
2023-04-15T15:10:49.289Z,9.90
2023-04-15T15:13:18.030Z,9.90
2023-04-15T15:15:45.834Z,10.00
2023-04-15T15:18:13.360Z,9.80
2023-04-15T15:20:40.364Z,9.80
2023-04-15T15:23:07.876Z,9.60
2023-04-15T15:25:36.121Z,9.60
2023-04-15T15:28:03.578Z,9.60
2023-04-15T15:30:30.786Z,9.60
2023-04-15T15:32:58.210Z,9.60
2023-04-15T15:35:28.933Z,9.60
2023-04-15T15:37:56.518Z,9.70
2023-04-15T15:40:23.624Z,9.70
2023-04-15T15:42:51.085Z,9.70
2023-04-15T15:45:18.732Z,9.70
2023-04-15T15:47:46.289Z,9.60
2023-04-15T15:50:14.700Z,9.60
2023-04-15T15:52:42.241Z,9.50
2023-04-15T15:55:09.421Z,9.40
2023-04-15T15:57:36.994Z,9.40
2023-04-15T16:00:11.910Z,9.40
2023-04-15T16:05:11.322Z,9.40
2023-04-15T16:07:38.736Z,9.40
2023-04-15T16:10:07.446Z,9.30
2023-04-15T16:12:35.115Z,9.30
2023-04-15T16:15:02.946Z,9.20
2023-04-15T16:17:31.878Z,9.30
2023-04-15T16:20:00.938Z,9.30
2023-04-15T16:22:30.335Z,9.30
2023-04-15T16:24:58.260Z,9.30
2023-04-15T16:27:25.945Z,9.30
2023-04-15T16:29:53.761Z,9.30
2023-04-15T16:32:21.426Z,9.30
2023-04-15T16:34:48.897Z,9.20
2023-04-15T16:37:16.341Z,9.10
2023-04-15T16:39:43.539Z,9.10
2023-04-15T16:42:11.228Z,9.00
2023-04-15T16:44:38.583Z,9.00
2023-04-15T16:47:06.176Z,9.00
2023-04-15T16:49:35.742Z,9.10
2023-04-15T16:52:03.763Z,9.00
2023-04-15T16:54:31.098Z,9.00
2023-04-15T16:57:03.039Z,9.00
2023-04-15T16:59:30.085Z,9.00
2023-04-15T17:01:57.763Z,9.00
2023-04-15T17:04:25.342Z,8.90
2023-04-15T17:06:53.085Z,8.90
2023-04-15T17:09:20.552Z,8.90
2023-04-15T17:11:51.130Z,8.90
2023-04-15T17:14:18.340Z,8.80
2023-04-15T17:16:46.370Z,8.80
2023-04-15T17:19:13.411Z,8.90
2023-04-15T17:21:40.781Z,8.90
2023-04-15T17:24:07.855Z,8.90
2023-04-15T17:26:35.408Z,8.80
2023-04-15T17:29:02.650Z,8.80
2023-04-15T17:31:30.761Z,8.90
2023-04-15T17:34:04.557Z,8.80
2023-04-15T17:36:38.271Z,8.80
2023-04-15T17:39:05.785Z,8.80
2023-04-15T17:41:33.523Z,8.70
2023-04-15T17:44:00.767Z,8.70
2023-04-15T17:46:28.418Z,8.70
2023-04-15T17:48:55.711Z,8.70
2023-04-15T17:51:23.257Z,8.60
2023-04-15T17:53:50.753Z,8.60
2023-04-15T17:56:18.459Z,8.60
2023-04-15T17:58:45.969Z,8.60
2023-04-15T18:01:15.718Z,8.60
2023-04-15T18:03:43.948Z,8.60
2023-04-15T18:06:12.279Z,8.50
2023-04-15T18:08:39.501Z,8.50
2023-04-15T18:11:12.097Z,8.50
2023-04-15T18:13:39.377Z,8.50
2023-04-15T18:16:07.287Z,8.50
2023-04-15T18:18:34.508Z,8.60
2023-04-15T18:21:04.875Z,8.40
2023-04-15T18:23:34.198Z,8.40
2023-04-15T18:26:02.373Z,8.40
2023-04-15T18:28:31.613Z,8.40
2023-04-15T18:30:59.451Z,8.40
2023-04-15T18:33:27.636Z,8.40
2023-04-15T18:35:57.607Z,8.40
2023-04-15T18:38:27.066Z,8.40
2023-04-15T18:40:55.485Z,8.40
2023-04-15T18:43:23.253Z,8.30
2023-04-15T18:45:53.052Z,8.30
2023-04-15T18:48:20.943Z,8.30
2023-04-15T18:50:54.153Z,8.30
2023-04-15T18:53:21.820Z,8.20
2023-04-15T18:55:50.200Z,8.30
2023-04-15T18:58:18.836Z,8.30
2023-04-15T19:00:49.588Z,8.30
2023-04-15T19:03:17.077Z,8.20
2023-04-15T19:05:44.869Z,8.20
2023-04-15T19:08:12.331Z,8.20
2023-04-15T19:10:40.007Z,8.10
2023-04-15T19:13:07.316Z,8.10
2023-04-15T19:15:34.674Z,8.10
2023-04-15T19:18:02.089Z,8.10
2023-04-15T19:20:39.187Z,8.10
2023-04-15T19:23:09.876Z,8.20
2023-04-15T19:25:38.401Z,8.10
2023-04-15T19:28:06.000Z,8.10
2023-04-15T19:30:33.882Z,8.00
2023-04-15T19:33:01.076Z,8.00
2023-04-15T19:35:28.808Z,8.00
2023-04-15T19:37:56.074Z,8.00
2023-04-15T19:40:25.212Z,7.90
2023-04-15T19:42:52.357Z,8.00
2023-04-15T19:45:19.936Z,8.00
2023-04-15T19:47:47.301Z,8.10
2023-04-15T19:50:16.584Z,8.00
2023-04-15T19:52:44.053Z,8.00
2023-04-15T19:55:11.834Z,8.10
2023-04-15T19:57:39.068Z,8.10
2023-04-15T20:00:08.186Z,8.10
2023-04-15T20:02:35.533Z,8.10
2023-04-15T20:05:03.186Z,8.20
2023-04-15T20:07:30.592Z,8.10
2023-04-15T20:09:57.936Z,8.20
2023-04-15T20:12:51.590Z,8.20
2023-04-15T20:15:13.632Z,8.20
2023-04-15T20:17:40.784Z,8.20
2023-04-15T20:20:08.674Z,8.20
2023-04-15T20:22:37.309Z,8.20
2023-04-15T20:25:05.043Z,8.10
2023-04-15T20:27:32.171Z,8.00
2023-04-15T20:29:59.773Z,8.00
2023-04-15T20:32:28.388Z,8.00
2023-04-15T20:34:56.017Z,7.90
2023-04-15T20:37:23.047Z,8.00
2023-04-15T20:39:50.668Z,8.00
2023-04-15T20:42:19.249Z,8.00
2023-04-15T20:44:47.110Z,7.90
2023-04-15T20:47:14.364Z,8.00
2023-04-15T20:49:44.261Z,7.90
2023-04-15T20:52:11.581Z,8.00
2023-04-15T20:54:44.390Z,8.00
2023-04-15T20:57:11.660Z,8.00
2023-04-15T20:59:38.977Z,8.00
2023-04-15T21:02:06.650Z,8.00
2023-04-15T21:04:34.100Z,8.10
2023-04-15T21:07:01.241Z,8.00
2023-04-15T21:09:28.672Z,8.00
2023-04-15T21:12:01.492Z,8.00
2023-04-15T21:14:29.704Z,8.00
2023-04-15T21:16:58.216Z,8.00
2023-04-15T21:19:25.835Z,8.00
2023-04-15T21:21:52.873Z,8.00
2023-04-15T21:24:20.623Z,8.00
2023-04-15T21:26:47.673Z,8.00
2023-04-15T21:29:15.229Z,8.00
2023-04-15T21:31:43.738Z,8.00
2023-04-15T21:34:11.284Z,8.00
2023-04-15T21:36:38.811Z,8.00
2023-04-15T21:39:06.491Z,8.10
2023-04-15T21:41:33.581Z,8.00
2023-04-15T21:44:00.908Z,8.00
2023-04-15T21:46:32.764Z,8.10
2023-04-15T21:49:01.159Z,8.10
2023-04-15T21:51:28.346Z,8.10
2023-04-15T21:53:56.003Z,8.10
2023-04-15T21:56:24.303Z,8.10
2023-04-15T21:58:57.508Z,8.10
2023-04-15T22:01:25.129Z,8.10
2023-04-15T22:03:52.860Z,8.20
2023-04-15T22:06:20.258Z,8.20
2023-04-15T22:08:56.826Z,8.20
2023-04-15T22:11:31.144Z,8.20
2023-04-15T22:13:59.350Z,8.20
2023-04-15T22:16:28.230Z,8.20
2023-04-15T22:18:56.365Z,8.20
2023-04-15T22:21:24.144Z,8.20
2023-04-15T22:24:38.793Z,8.20
2023-04-15T22:26:40.985Z,8.10
2023-04-15T22:29:08.409Z,8.10
2023-04-15T22:31:36.014Z,8.20
2023-04-15T22:34:03.567Z,8.10
2023-04-15T22:36:31.754Z,8.10
2023-04-15T22:38:59.072Z,8.20
2023-04-15T22:41:26.400Z,8.10
2023-04-15T22:43:53.758Z,8.10
2023-04-15T22:46:22.198Z,8.10
2023-04-15T22:48:50.372Z,8.10
2023-04-15T22:51:24.361Z,8.00
2023-04-15T22:53:52.182Z,8.00
2023-04-15T22:56:23.489Z,8.10
2023-04-15T22:58:50.846Z,8.10
2023-04-15T23:01:18.706Z,8.10
2023-04-15T23:03:55.797Z,8.10
2023-04-15T23:06:25.068Z,8.10
2023-04-15T23:08:53.295Z,8.00
2023-04-15T23:11:20.363Z,8.00
2023-04-15T23:13:47.804Z,8.00
2023-04-15T23:16:15.180Z,8.10
2023-04-15T23:18:42.500Z,8.00
2023-04-15T23:21:09.556Z,8.00
2023-04-15T23:23:36.992Z,7.90
2023-04-15T23:26:06.337Z,7.90
2023-04-15T23:28:35.778Z,7.90
2023-04-15T23:31:02.819Z,7.90
2023-04-15T23:33:30.157Z,7.90
2023-04-15T23:35:57.501Z,7.90
2023-04-15T23:38:25.443Z,7.90
2023-04-15T23:40:52.613Z,7.90
2023-04-15T23:43:19.902Z,7.90
2023-04-15T23:45:47.289Z,7.90
2023-04-15T23:48:14.696Z,7.90
2023-04-15T23:50:41.875Z,7.90
2023-04-15T23:53:09.214Z,7.90
2023-04-15T23:55:36.303Z,7.90
2023-04-15T23:58:03.594Z,7.90
